createdAt,value
2019-03-04T00:00:54.712Z,99204.03
2019-03-04T00:03:24.199Z,99186.63
2019-03-04T00:05:53.804Z,99176.23
2019-03-04T00:08:23.343Z,99194.57
2019-03-04T00:10:52.851Z,99189.80
2019-03-04T00:13:22.336Z,99177.32
2019-03-04T00:15:51.879Z,99189.23
2019-03-04T00:18:21.471Z,99172.66
2019-03-04T00:20:50.943Z,99170.51
2019-03-04T00:23:20.520Z,99160.26
2019-03-04T00:25:51.793Z,99152.98
2019-03-04T00:28:21.462Z,99150.17
2019-03-04T00:30:50.961Z,99126.69
2019-03-04T00:33:20.569Z,99112.73
2019-03-04T00:35:50.051Z,99101.44
2019-03-04T00:38:19.607Z,99091.46
2019-03-04T00:40:49.104Z,99076.76
2019-03-04T00:43:18.952Z,99067.02
2019-03-04T00:45:48.531Z,99053.39
2019-03-04T00:48:18.013Z,99044.99
2019-03-04T00:50:47.495Z,99038.14
2019-03-04T00:53:16.984Z,99022.61
2019-03-04T00:55:46.468Z,99025.92
2019-03-04T00:58:15.947Z,99036.17
2019-03-04T01:00:45.529Z,99054.32
2019-03-04T01:03:15.098Z,99040.92
2019-03-04T01:05:44.590Z,99031.03
2019-03-04T01:08:14.057Z,99034.04
2019-03-04T01:10:43.688Z,99072.52
2019-03-04T01:13:13.175Z,99062.80
2019-03-04T01:15:42.669Z,99054.52
2019-03-04T01:18:12.149Z,99056.39
2019-03-04T01:20:41.670Z,99060.94
2019-03-04T01:23:11.172Z,99060.17
2019-03-04T01:25:40.654Z,99079.61
2019-03-04T01:28:10.140Z,99063.44
2019-03-04T01:30:39.713Z,99063.55
2019-03-04T01:33:09.235Z,99066.88
2019-03-04T01:35:38.722Z,99088.28
2019-03-04T01:38:08.192Z,99070.51
2019-03-04T01:40:37.675Z,99063.28
2019-03-04T01:43:07.156Z,99022.47
2019-03-04T01:45:36.659Z,99000.77
2019-03-04T01:48:06.257Z,98973.95
2019-03-04T01:50:35.721Z,98972.45
2019-03-04T01:53:05.211Z,98942.09
2019-03-04T01:55:34.729Z,98934.02
2019-03-04T01:58:04.204Z,98953.32
2019-03-04T02:00:33.932Z,98936.09
2019-03-04T02:03:03.415Z,98898.86
2019-03-04T02:05:32.960Z,98883.80
2019-03-04T02:08:02.451Z,98930.41
2019-03-04T02:10:31.931Z,98931.08
2019-03-04T02:13:01.447Z,98916.69
2019-03-04T02:15:30.988Z,98901.03
2019-03-04T02:18:00.496Z,98899.92
2019-03-04T02:20:29.995Z,98881.99
2019-03-04T02:22:59.534Z,98867.33
2019-03-04T02:25:45.675Z,98864.59
2019-03-04T02:28:15.170Z,98847.77
2019-03-04T02:30:44.740Z,98837.11
2019-03-04T02:33:14.298Z,98824.36
2019-03-04T02:35:43.808Z,98831.66
2019-03-04T02:38:13.310Z,98828.14
2019-03-04T02:40:42.798Z,98803.32
2019-03-04T02:43:12.308Z,98794.35
2019-03-04T02:45:41.787Z,98772.41
2019-03-04T02:48:11.291Z,98761.89
2019-03-04T02:50:40.789Z,98765.21
2019-03-04T02:53:10.413Z,98767.27
2019-03-04T02:55:39.992Z,98761.53
2019-03-04T02:58:09.478Z,98774.13
2019-03-04T03:00:38.990Z,98756.17
2019-03-04T03:03:08.559Z,98762.84
2019-03-04T03:05:38.049Z,98769.27
2019-03-04T03:08:07.545Z,98771.81
2019-03-04T03:10:37.065Z,98756.39
2019-03-04T03:13:06.552Z,98746.22
2019-03-04T03:15:36.036Z,98746.70
2019-03-04T03:18:05.681Z,98732.92
2019-03-04T03:20:35.177Z,98718.17
2019-03-04T03:23:04.660Z,98718.14
2019-03-04T03:25:34.154Z,98708.73
2019-03-04T03:28:03.656Z,98674.91
2019-03-04T03:30:33.181Z,98675.14
2019-03-04T03:33:02.733Z,98666.08
2019-03-04T03:35:32.266Z,98662.40
2019-03-04T03:38:01.774Z,98632.13
2019-03-04T03:40:31.257Z,98613.48
2019-03-04T03:43:00.797Z,98628.91
2019-03-04T03:45:30.866Z,98598.28
2019-03-04T03:48:00.395Z,98580.48
2019-03-04T03:50:29.892Z,98585.19
2019-03-04T03:52:59.398Z,98585.13
2019-03-04T03:55:28.877Z,98611.87
2019-03-04T03:57:58.450Z,98610.23
2019-03-04T04:00:28.017Z,98581.63
2019-03-04T04:02:57.497Z,98574.77
2019-03-04T04:05:27.013Z,98515.80
2019-03-04T04:07:56.530Z,98565.80
2019-03-04T04:10:26.084Z,98530.38
2019-03-04T04:12:55.568Z,98544.38
2019-03-04T04:15:25.393Z,98517.83
2019-03-04T04:17:54.836Z,98490.17
2019-03-04T04:20:24.325Z,98484.55
2019-03-04T04:22:53.827Z,98510.03
2019-03-04T04:25:23.315Z,98495.45
2019-03-04T04:27:52.948Z,98543.10
2019-03-04T04:30:30.085Z,98497.05
2019-03-04T04:32:59.592Z,98497.02
2019-03-04T04:35:29.169Z,98497.28
2019-03-04T04:37:58.679Z,98508.11
2019-03-04T04:40:28.261Z,98532.04
2019-03-04T04:42:57.726Z,98516.69
2019-03-04T04:45:27.233Z,98505.98
2019-03-04T04:47:56.728Z,98502.43
2019-03-04T04:50:29.725Z,98521.18
2019-03-04T04:52:59.355Z,98506.66
2019-03-04T04:55:28.825Z,98493.06
2019-03-04T04:57:58.410Z,98484.13
2019-03-04T05:00:27.961Z,98491.11
2019-03-04T05:02:57.462Z,98481.23
2019-03-04T05:05:27.492Z,98469.48
2019-03-04T05:07:56.976Z,98460.94
2019-03-04T05:10:26.536Z,98442.24
2019-03-04T05:12:56.031Z,98421.30
2019-03-04T05:15:25.588Z,98439.52
2019-03-04T05:17:55.115Z,98449.84
2019-03-04T05:20:28.798Z,98447.39
2019-03-04T05:22:58.302Z,98443.73
2019-03-04T05:25:27.924Z,98437.16
2019-03-04T05:27:57.472Z,98429.33
2019-03-04T05:30:26.961Z,98427.33
2019-03-04T05:32:56.445Z,98439.17
2019-03-04T05:35:26.094Z,98425.22
2019-03-04T05:37:55.574Z,98411.44
2019-03-04T05:40:25.082Z,98429.23
2019-03-04T05:42:54.549Z,98423.63
2019-03-04T05:45:24.040Z,98407.98
2019-03-04T05:47:53.536Z,98423.63
2019-03-04T05:50:25.347Z,98398.73
2019-03-04T05:52:54.986Z,98395.44
2019-03-04T05:55:24.567Z,98385.47
2019-03-04T05:57:54.042Z,98372.03
2019-03-04T06:00:25.885Z,98390.47
2019-03-04T06:03:05.924Z,98403.97
2019-03-04T06:05:35.449Z,98405.34
2019-03-04T06:08:06.651Z,98403.02
2019-03-04T06:10:36.129Z,98415.48
2019-03-04T06:13:05.695Z,98410.55
2019-03-04T06:15:35.355Z,98380.75
2019-03-04T06:18:05.825Z,98410.67
2019-03-04T06:20:35.307Z,98517.27
2019-03-04T06:23:04.802Z,98516.13
2019-03-04T06:25:34.300Z,98532.31
2019-03-04T06:28:03.909Z,98552.00
2019-03-04T06:30:33.772Z,98542.45
2019-03-04T06:33:03.288Z,98537.80
2019-03-04T06:35:32.892Z,98536.73
2019-03-04T06:38:02.450Z,98525.09
2019-03-04T06:40:32.004Z,98512.66
2019-03-04T06:43:01.501Z,98506.95
2019-03-04T06:45:31.009Z,98490.03
2019-03-04T06:48:00.511Z,98499.83
2019-03-04T06:50:47.378Z,98525.88
2019-03-04T06:53:33.218Z,98541.20
2019-03-04T06:56:19.427Z,98519.15
2019-03-04T06:59:13.042Z,98492.50
2019-03-04T07:02:04.791Z,98482.13
2019-03-04T07:05:18.081Z,98481.45
2019-03-04T07:07:47.572Z,98469.78
2019-03-04T07:10:17.063Z,98476.22
2019-03-04T07:12:46.538Z,98490.78
2019-03-04T07:15:16.399Z,98493.70
2019-03-04T07:17:45.900Z,98483.77
2019-03-04T07:20:20.832Z,98479.33
2019-03-04T07:22:50.326Z,98484.06
2019-03-04T07:25:19.886Z,98510.50
2019-03-04T07:27:49.394Z,98548.71
2019-03-04T07:30:21.001Z,98530.69
2019-03-04T07:32:50.499Z,98516.34
2019-03-04T07:35:19.998Z,98506.75
2019-03-04T07:38:12.243Z,98530.38
2019-03-04T07:40:41.779Z,98527.80
2019-03-04T07:43:11.312Z,98537.43
2019-03-04T07:45:40.877Z,98503.26
2019-03-04T07:48:11.133Z,98481.89
2019-03-04T07:50:40.725Z,98504.86
2019-03-04T07:53:10.284Z,98512.46
2019-03-04T07:55:39.761Z,98530.39
2019-03-04T07:58:09.259Z,98527.20
2019-03-04T08:00:38.822Z,98515.94
2019-03-04T08:03:08.410Z,98535.08
2019-03-04T08:05:38.281Z,98531.59
2019-03-04T08:08:11.992Z,98545.98
2019-03-04T08:11:20.864Z,98543.97
2019-03-04T08:14:03.645Z,98549.55
2019-03-04T08:16:33.270Z,98542.42
2019-03-04T08:19:02.793Z,98564.47
2019-03-04T08:21:32.339Z,98549.34
2019-03-04T08:24:01.847Z,98555.15
2019-03-04T08:26:31.351Z,98561.78
2019-03-04T08:29:00.844Z,98554.78
2019-03-04T08:31:30.342Z,98561.08
2019-03-04T08:33:59.956Z,98555.95
2019-03-04T08:36:29.503Z,98571.20
2019-03-04T08:38:58.999Z,98575.00
2019-03-04T08:41:28.488Z,98566.50
2019-03-04T08:43:58.048Z,98568.80
2019-03-04T08:46:27.572Z,98580.73
2019-03-04T08:48:57.100Z,98577.05
2019-03-04T08:51:26.607Z,98564.45
2019-03-04T08:53:56.085Z,98554.52
2019-03-04T08:56:25.715Z,98562.60
2019-03-04T08:58:55.232Z,98556.09
2019-03-04T09:01:24.783Z,98555.23
2019-03-04T09:03:54.274Z,98553.73
2019-03-04T09:06:23.803Z,98558.90
2019-03-04T09:08:53.356Z,98552.88
2019-03-04T09:11:22.846Z,98575.37
2019-03-04T09:13:52.332Z,98563.45
2019-03-04T09:16:21.818Z,98580.88
2019-03-04T09:18:51.323Z,98567.34
2019-03-04T09:21:20.831Z,98567.30
2019-03-04T09:23:50.406Z,98579.86
2019-03-04T09:26:31.795Z,98589.36
2019-03-04T09:29:01.280Z,98574.95
2019-03-04T09:31:30.803Z,98569.38
2019-03-04T09:34:00.291Z,98581.00
2019-03-04T09:36:29.802Z,98564.61
2019-03-04T09:38:59.350Z,98577.05
2019-03-04T09:41:28.969Z,98563.59
2019-03-04T09:43:58.470Z,98556.38
2019-03-04T09:46:27.930Z,98561.30
2019-03-04T09:48:57.883Z,98556.91
2019-03-04T09:51:27.585Z,98565.66
2019-03-04T09:53:57.106Z,98548.77
2019-03-04T09:56:26.599Z,98554.79
2019-03-04T09:58:56.159Z,98548.66
2019-03-04T10:01:30.340Z,98537.31
2019-03-04T10:04:25.491Z,98541.50
2019-03-04T10:07:14.140Z,98539.77
2019-03-04T10:10:06.133Z,98573.68
2019-03-04T10:12:52.340Z,98563.05
2019-03-04T10:15:32.072Z,98534.61
2019-03-04T10:18:21.218Z,98531.00
2019-03-04T10:21:15.742Z,98531.59
2019-03-04T10:24:33.973Z,98495.70
2019-03-04T10:27:40.998Z,98526.52
2019-03-04T10:30:35.916Z,98504.81
2019-03-04T10:33:37.089Z,98497.75
2019-03-04T10:36:17.003Z,98504.91
2019-03-04T10:39:08.650Z,98490.20
2019-03-04T10:41:48.437Z,98518.83
2019-03-04T10:44:50.133Z,98505.13
2019-03-04T10:47:19.657Z,98522.77
2019-03-04T10:49:49.211Z,98506.43
2019-03-04T10:52:18.786Z,98499.86
2019-03-04T10:54:48.284Z,98498.39
2019-03-04T10:57:17.849Z,98492.34
2019-03-04T10:59:47.347Z,98499.49
2019-03-04T11:02:16.930Z,98498.87
2019-03-04T11:04:46.498Z,98499.63
2019-03-04T11:07:16.053Z,98485.22
2019-03-04T11:09:45.562Z,98500.00
2019-03-04T11:12:15.078Z,98483.55
2019-03-04T11:14:44.604Z,98490.72
2019-03-04T11:17:14.095Z,98494.39
2019-03-04T11:19:43.617Z,98506.42
2019-03-04T11:22:13.469Z,98523.41
2019-03-04T11:24:43.104Z,98513.64
2019-03-04T11:27:12.753Z,98540.30
2019-03-04T11:29:42.307Z,98539.92
2019-03-04T11:32:11.952Z,98527.61
2019-03-04T11:34:42.750Z,98540.85
2019-03-04T11:37:12.340Z,98536.08
2019-03-04T11:39:46.178Z,98589.91
2019-03-04T11:42:15.770Z,98626.91
2019-03-04T11:44:45.348Z,98651.98
2019-03-04T11:47:15.202Z,98662.81
2019-03-04T11:49:44.738Z,98677.13
2019-03-04T11:52:14.714Z,98679.05
2019-03-04T11:54:45.291Z,98694.50
2019-03-04T11:57:14.789Z,98687.70
2019-03-04T11:59:44.370Z,98694.72
2019-03-04T12:02:15.562Z,98698.98
2019-03-04T12:04:47.504Z,98701.62
2019-03-04T12:07:16.258Z,98731.34
2019-03-04T12:09:45.765Z,98723.18
2019-03-04T12:12:15.837Z,98726.63
2019-03-04T12:14:45.510Z,98726.25
2019-03-04T12:17:15.040Z,98733.06
2019-03-04T12:19:44.517Z,98733.95
2019-03-04T12:22:14.039Z,98748.13
2019-03-04T12:24:43.673Z,98749.28
2019-03-04T12:27:13.257Z,98747.14
2019-03-04T12:29:42.722Z,98760.01
2019-03-04T12:32:13.856Z,98764.44
2019-03-04T12:34:43.435Z,98774.77
2019-03-04T12:37:13.017Z,98775.59
2019-03-04T12:39:42.524Z,98779.42
2019-03-04T12:42:12.136Z,98781.98
2019-03-04T12:44:41.633Z,98789.26
2019-03-04T12:47:11.218Z,98778.39
2019-03-04T12:49:40.856Z,98795.98
2019-03-04T12:52:10.404Z,98807.98
2019-03-04T12:54:39.925Z,98818.28
2019-03-04T12:57:09.400Z,98832.33
2019-03-04T12:59:38.893Z,98840.36
2019-03-04T13:02:08.530Z,98842.44
2019-03-04T13:04:38.023Z,98852.34
2019-03-04T13:07:07.514Z,98851.55
2019-03-04T13:09:37.086Z,98850.72
2019-03-04T13:12:06.792Z,98855.57
2019-03-04T13:14:36.368Z,98862.19
2019-03-04T13:17:06.020Z,98867.34
2019-03-04T13:19:35.592Z,98882.44
2019-03-04T13:22:08.411Z,98873.91
2019-03-04T13:24:36.584Z,98881.78
2019-03-04T13:27:06.317Z,98883.77
2019-03-04T13:29:35.879Z,98892.04
2019-03-04T13:32:05.492Z,98883.98
2019-03-04T13:34:35.014Z,98898.95
2019-03-04T13:37:04.609Z,98913.47
2019-03-04T13:39:34.105Z,98914.35
2019-03-04T13:42:03.620Z,98926.95
2019-03-04T13:44:34.060Z,98920.61
2019-03-04T13:47:03.600Z,98923.13
2019-03-04T13:49:33.091Z,98918.76
2019-03-04T13:52:02.667Z,98931.20
2019-03-04T13:54:32.151Z,98933.22
2019-03-04T13:57:01.667Z,98948.77
2019-03-04T13:59:31.156Z,98949.20
2019-03-04T14:02:00.717Z,98955.27
2019-03-04T14:04:30.284Z,98961.16
2019-03-04T14:06:59.787Z,98955.86
2019-03-04T14:09:29.303Z,98965.91
2019-03-04T14:11:58.854Z,98964.44
2019-03-04T14:14:28.527Z,98961.88
2019-03-04T14:16:58.099Z,98981.09
2019-03-04T14:19:27.588Z,98978.00
2019-03-04T14:21:57.090Z,98975.23
2019-03-04T14:24:26.567Z,98973.22
2019-03-04T14:26:56.169Z,98984.17
2019-03-04T14:29:25.716Z,99000.20
2019-03-04T14:31:55.320Z,98994.73
2019-03-04T14:34:24.825Z,98998.14
2019-03-04T14:36:54.344Z,99003.91
2019-03-04T14:39:23.839Z,99011.30
2019-03-04T14:41:53.338Z,99022.62
2019-03-04T14:44:22.853Z,99029.82
2019-03-04T14:46:52.378Z,99031.56
2019-03-04T14:49:21.940Z,99037.90
2019-03-04T14:51:51.489Z,99046.80
2019-03-04T14:54:20.997Z,99053.41
2019-03-04T14:56:50.647Z,99053.14
2019-03-04T14:59:20.232Z,99068.48
2019-03-04T15:01:49.710Z,99075.77
2019-03-04T15:04:19.201Z,99075.70
2019-03-04T15:06:48.770Z,99083.61
2019-03-04T15:09:18.520Z,99086.63
2019-03-04T15:11:48.114Z,99090.58
2019-03-04T15:14:17.604Z,99096.95
2019-03-04T15:16:47.206Z,99103.28
2019-03-04T15:19:16.696Z,99116.23
2019-03-04T15:21:46.256Z,99118.14
2019-03-04T15:24:15.734Z,99122.52
2019-03-04T15:26:45.310Z,99116.91
2019-03-04T15:29:14.836Z,99132.11
2019-03-04T15:31:44.496Z,99132.08
2019-03-04T15:34:14.069Z,99142.02
2019-03-04T15:36:43.594Z,99145.05
2019-03-04T15:39:22.872Z,99141.58
2019-03-04T15:41:47.512Z,99150.18
2019-03-04T15:44:17.067Z,99157.53
2019-03-04T15:46:46.713Z,99158.94
2019-03-04T15:49:16.437Z,99166.64
2019-03-04T15:51:46.102Z,99171.83
2019-03-04T15:54:15.736Z,99172.25
2019-03-04T15:56:45.320Z,99169.23
2019-03-04T15:59:14.816Z,99180.08
2019-03-04T16:01:44.441Z,99187.26
2019-03-04T16:04:14.022Z,99187.03
2019-03-04T16:06:43.618Z,99188.75
2019-03-04T16:09:17.460Z,99185.27
2019-03-04T16:11:47.020Z,99197.27
2019-03-04T16:14:16.596Z,99204.30
2019-03-04T16:16:46.335Z,99209.05
2019-03-04T16:19:15.923Z,99218.40
2019-03-04T16:21:45.766Z,99224.00
2019-03-04T16:24:15.319Z,99223.53
2019-03-04T16:26:44.947Z,99229.59
2019-03-04T16:29:14.541Z,99237.05
2019-03-04T16:31:44.117Z,99238.73
2019-03-04T16:34:13.676Z,99234.88
2019-03-04T16:36:43.169Z,99236.72
2019-03-04T16:39:12.795Z,99242.83
2019-03-04T16:41:42.273Z,99246.29
2019-03-04T16:44:11.860Z,99245.59
2019-03-04T16:46:41.437Z,99251.61
2019-03-04T16:49:11.043Z,99259.84
2019-03-04T16:51:40.692Z,99259.86
2019-03-04T16:54:10.313Z,99266.38
2019-03-04T16:56:39.810Z,99273.33
2019-03-04T16:59:09.311Z,99282.39
2019-03-04T17:01:38.909Z,99288.52
2019-03-04T17:04:08.509Z,99295.38
2019-03-04T17:06:38.065Z,99292.41
2019-03-04T17:09:17.461Z,99291.56
2019-03-04T17:11:47.021Z,99304.52
2019-03-04T17:14:16.603Z,99304.95
2019-03-04T17:16:46.221Z,99305.84
2019-03-04T17:19:15.751Z,99311.45
2019-03-04T17:21:45.227Z,99320.52
2019-03-04T17:24:14.884Z,99316.66
2019-03-04T17:26:44.472Z,99334.36
2019-03-04T17:29:13.985Z,99333.06
2019-03-04T17:31:43.613Z,99337.37
2019-03-04T17:34:13.118Z,99353.33
2019-03-04T17:36:42.604Z,99354.61
2019-03-04T17:39:12.101Z,99358.93
2019-03-04T17:41:41.594Z,99363.69
2019-03-04T17:46:39.695Z,99363.25
2019-03-04T17:49:09.190Z,99371.88
2019-03-04T17:51:38.679Z,99370.13
2019-03-04T17:54:08.331Z,99376.63
2019-03-04T17:56:37.957Z,99376.19
2019-03-04T17:59:07.542Z,99377.48
2019-03-04T18:01:37.170Z,99380.49
2019-03-04T18:04:06.895Z,99386.55
2019-03-04T18:06:36.540Z,99391.67
2019-03-04T18:09:07.946Z,99389.55
2019-03-04T18:11:37.639Z,99392.59
2019-03-04T18:14:07.438Z,99392.14
2019-03-04T18:16:37.364Z,99398.63
2019-03-04T18:19:06.921Z,99402.94
2019-03-04T18:21:36.550Z,99408.55
2019-03-04T18:24:06.111Z,99413.68
2019-03-04T18:26:40.498Z,99412.44
2019-03-04T18:29:20.563Z,99408.55
2019-03-04T18:32:16.002Z,99405.94
2019-03-04T18:35:01.953Z,99414.12
2019-03-04T18:38:06.176Z,99424.48
2019-03-04T18:41:07.542Z,99422.75
2019-03-04T18:44:02.702Z,99432.66
2019-03-04T18:47:06.975Z,99430.91
2019-03-04T18:49:36.481Z,99436.57
2019-03-04T18:52:06.113Z,99436.11
2019-03-04T18:54:35.649Z,99442.59
2019-03-04T18:57:06.718Z,99446.91
2019-03-04T18:59:36.220Z,99440.84
2019-03-04T19:02:06.069Z,99447.30
2019-03-04T19:04:35.683Z,99445.05
2019-03-04T19:07:05.326Z,99442.88
2019-03-04T19:09:34.904Z,99436.84
2019-03-04T19:12:04.578Z,99439.84
2019-03-04T19:14:34.134Z,99443.27
2019-03-04T19:17:03.785Z,99448.81
2019-03-04T19:19:33.358Z,99457.94
2019-03-04T19:22:02.908Z,99453.61
2019-03-04T19:24:32.486Z,99462.09
2019-03-04T19:27:02.033Z,99465.14
2019-03-04T19:29:31.543Z,99468.14
2019-03-04T19:32:01.109Z,99458.59
2019-03-04T19:34:30.668Z,99462.55
2019-03-04T19:37:00.151Z,99465.20
2019-03-04T19:39:29.729Z,99468.98
2019-03-04T19:41:59.285Z,99465.52
2019-03-04T19:44:28.888Z,99471.60
2019-03-04T19:46:58.494Z,99465.08
2019-03-04T19:49:28.069Z,99464.23
2019-03-04T19:51:57.728Z,99462.00
2019-03-04T19:54:27.333Z,99469.80
2019-03-04T19:56:56.978Z,99478.84
2019-03-04T19:59:26.622Z,99472.74
2019-03-04T20:01:56.179Z,99465.42
2019-03-04T20:04:25.735Z,99475.73
2019-03-04T20:06:55.268Z,99476.43
2019-03-04T20:09:25.216Z,99471.61
2019-03-04T20:11:54.849Z,99471.09
2019-03-04T20:14:25.360Z,99470.23
2019-03-04T20:16:55.021Z,99469.36
2019-03-04T20:19:24.735Z,99475.11
2019-03-04T20:21:54.319Z,99472.18
2019-03-04T20:24:23.854Z,99469.75
2019-03-04T20:26:53.472Z,99468.95
2019-03-04T20:29:23.083Z,99476.78
2019-03-04T20:31:52.652Z,99478.13
2019-03-04T20:34:22.247Z,99468.20
2019-03-04T20:36:51.921Z,99472.15
2019-03-04T20:39:21.823Z,99468.70
2019-03-04T20:41:51.381Z,99477.75
2019-03-04T20:44:21.045Z,99482.10
2019-03-04T20:46:50.519Z,99481.25
2019-03-04T20:49:19.992Z,99481.68
2019-03-04T20:51:49.631Z,99495.95
2019-03-04T20:54:19.210Z,99516.11
2019-03-04T20:56:48.951Z,99527.23
2019-03-04T20:59:18.486Z,99562.38
2019-03-04T21:01:47.974Z,99563.88
2019-03-04T21:04:17.511Z,99549.88
2019-03-04T21:06:47.123Z,99551.23
2019-03-04T21:09:17.660Z,99566.62
2019-03-04T21:11:47.129Z,99560.55
2019-03-04T21:14:16.832Z,99563.20
2019-03-04T21:16:46.345Z,99568.63
2019-03-04T21:19:15.833Z,99582.56
2019-03-04T21:21:45.416Z,99584.33
2019-03-04T21:24:15.159Z,99578.90
2019-03-04T21:26:44.765Z,99579.52
2019-03-04T21:29:30.452Z,99580.66
2019-03-04T21:32:09.752Z,99581.09
2019-03-04T21:34:59.118Z,99586.83
2019-03-04T21:37:33.701Z,99588.54
2019-03-04T21:40:35.166Z,99591.98
2019-03-04T21:43:17.675Z,99593.18
2019-03-04T21:46:28.131Z,99596.84
2019-03-04T21:49:02.421Z,99597.05
2019-03-04T21:51:58.991Z,99596.05
2019-03-04T21:54:28.644Z,99598.72
2019-03-04T21:57:22.013Z,99590.94
2019-03-04T21:59:51.638Z,99594.77
2019-03-04T22:02:38.582Z,99591.94
2019-03-04T22:05:17.328Z,99593.78
2019-03-04T22:07:46.956Z,99601.53
2019-03-04T22:10:17.010Z,99610.61
2019-03-04T22:12:46.963Z,99612.24
2019-03-04T22:15:17.848Z,99602.26
2019-03-04T22:17:47.436Z,99615.89
2019-03-04T22:20:17.544Z,99613.87
2019-03-04T22:22:47.025Z,99623.00
2019-03-04T22:25:16.946Z,99613.21
2019-03-04T22:27:46.649Z,99625.81
2019-03-04T22:30:20.171Z,99627.25
2019-03-04T22:32:49.717Z,99627.38
2019-03-04T22:35:19.263Z,99635.66
2019-03-04T22:37:48.964Z,99634.41
2019-03-04T22:40:27.777Z,99640.55
2019-03-04T22:42:57.273Z,99646.64
2019-03-04T22:45:26.988Z,99641.33
2019-03-04T22:47:56.628Z,99641.45
2019-03-04T22:50:26.196Z,99650.98
2019-03-04T22:52:55.757Z,99648.45
2019-03-04T22:55:31.780Z,99654.46
2019-03-04T22:58:01.295Z,99661.84
2019-03-04T23:00:53.111Z,99654.80
2019-03-04T23:03:25.123Z,99657.08
2019-03-04T23:06:08.487Z,99666.50
2019-03-04T23:08:38.440Z,99655.73
2019-03-04T23:11:08.046Z,99656.90
2019-03-04T23:13:54.013Z,99671.12
2019-03-04T23:16:30.904Z,99669.77
2019-03-04T23:19:00.553Z,99665.42
2019-03-04T23:21:30.144Z,99674.33
2019-03-04T23:23:59.655Z,99670.41
2019-03-04T23:26:29.211Z,99669.59
2019-03-04T23:28:58.695Z,99670.45
2019-03-04T23:31:28.236Z,99675.12
2019-03-04T23:33:57.824Z,99669.59
2019-03-04T23:36:27.350Z,99665.25
2019-03-04T23:38:56.945Z,99666.61
2019-03-04T23:41:26.398Z,99667.08
2019-03-04T23:43:55.946Z,99667.14
2019-03-04T23:46:25.434Z,99668.87
2019-03-04T23:48:54.957Z,99669.77
2019-03-04T23:51:24.529Z,99675.66
2019-03-04T23:53:54.067Z,99659.02
2019-03-04T23:56:23.686Z,99659.69
2019-03-04T23:58:53.253Z,99666.43
